Terminal Aerodrome Forecast
Issued by NWS

Home | Current Version | Previous Version | Text Only | Print | Product List | Glossary On
Versions: 1 2 3 4 5 6 7 8 9 10 11 12 13 14 15 16
567
FTUS43 KABR 211120
TAFPIR
TAF
KPIR 211120Z 2112/2212 34024G32KT P6SM SKC
     FM211700 33017G24KT P6SM SKC
     FM212100 33011KT P6SM FEW250
     FM212300 32006KT P6SM FEW250
     FM220600 14004KT P6SM FEW250=

USA.gov is the U.S. government's official web portal to all federal, state and local government web resources and services.